Time;durP1;ratioP1;P1;durP2;ratioP2;P2;SDS_P1;SDS_P2;PMS_P1;PMS_P2;Temp;Humidity;BMP_temperature;BMP_pressure;BME280_temperature;BME280_humidity;BME280_pressure;Samples;Min_cycle;Max_cycle;Signal;HPM_P1;HPM_P2
2023/12/18 00:00:23;;;;;;;25.50;9.10;;;3.10;1.00;;;;;;5029983;28;20904;-76
2023/12/18 00:02:48;;;;;;;30.80;9.27;;;3.30;1.00;;;;;;5027774;28;20189;-79
2023/12/18 00:05:14;;;;;;;23.03;7.70;;;2.90;1.00;;;;;;5028028;28;20213;-77
2023/12/18 00:07:39;;;;;;;23.53;9.10;;;3.00;1.00;;;;;;5030094;28;20186;-78
2023/12/18 00:10:06;;;;;;;23.57;8.40;;;3.00;1.00;;;;;;5030012;28;20190;-79
2023/12/18 00:12:31;;;;;;;22.90;8.40;;;3.00;1.00;;;;;;5026748;28;20197;-77
2023/12/18 00:14:57;;;;;;;20.90;8.17;;;3.40;1.00;;;;;;5030296;28;20787;-75
2023/12/18 00:17:22;;;;;;;28.10;9.70;;;3.00;1.00;;;;;;5030152;28;20184;-76
2023/12/18 00:19:48;;;;;;;29.60;9.03;;;3.00;1.00;;;;;;5028830;28;20563;-76
2023/12/18 00:22:14;;;;;;;60.80;12.00;;;3.00;1.00;;;;;;5026813;28;20680;-78
2023/12/18 00:24:39;;;;;;;20.03;8.60;;;2.90;1.00;;;;;;5030029;28;20178;-76
2023/12/18 00:27:04;;;;;;;26.50;9.53;;;3.10;1.00;;;;;;5029366;28;20189;-76
2023/12/18 00:29:30;;;;;;;48.27;9.50;;;3.10;1.00;;;;;;5029398;28;20579;-76
2023/12/18 00:31:55;;;;;;;55.13;9.73;;;3.00;1.00;;;;;;5028179;28;20284;-76
2023/12/18 00:34:21;;;;;;;24.90;9.10;;;3.00;1.00;;;;;;5027295;28;20206;-77
2023/12/18 00:36:46;;;;;;;23.47;8.83;;;3.00;1.00;;;;;;5030063;28;20261;-76
2023/12/18 00:39:15;;;;;;;29.80;8.80;;;3.00;1.00;;;;;;5027712;28;20192;-75
2023/12/18 00:41:41;;;;;;;25.40;9.27;;;3.00;1.00;;;;;;5022587;28;20205;-76
2023/12/18 00:44:06;;;;;;;28.60;9.47;;;3.00;1.00;;;;;;5028484;28;20428;-76
2023/12/18 00:46:32;;;;;;;30.87;9.47;;;3.00;1.00;;;;;;5028331;28;20181;-76
2023/12/18 00:48:57;;;;;;;23.97;9.00;;;3.00;1.00;;;;;;5029229;28;20197;-76
2023/12/18 00:51:23;;;;;;;24.23;9.43;;;2.70;1.00;;;;;;5026859;28;20720;-76
2023/12/18 00:53:49;;;;;;;24.37;10.03;;;3.00;1.00;;;;;;5029180;28;20202;-77
2023/12/18 00:56:14;;;;;;;24.27;9.30;;;3.00;1.00;;;;;;5029572;28;20177;-76
2023/12/18 00:58:40;;;;;;;25.93;9.53;;;3.00;1.00;;;;;;5027536;28;20240;-76
2023/12/18 01:01:05;;;;;;;29.03;9.87;;;3.10;1.00;;;;;;5025468;28;20208;-76
2023/12/18 01:03:31;;;;;;;23.00;9.67;;;3.10;1.00;;;;;;5029373;28;20277;-76
2023/12/18 01:05:57;;;;;;;44.50;10.20;;;3.30;1.00;;;;;;5023646;28;20190;-76
2023/12/18 01:08:22;;;;;;;24.47;9.63;;;3.20;1.00;;;;;;5023298;28;20182;-76
2023/12/18 01:10:48;;;;;;;26.57;10.23;;;3.10;1.00;;;;;;5022660;28;20202;-78
2023/12/18 01:13:13;;;;;;;25.87;9.87;;;3.10;1.00;;;;;;5026508;28;20212;-75
2023/12/18 01:15:39;;;;;;;24.40;10.70;;;3.10;1.00;;;;;;5019153;28;20174;-76
2023/12/18 01:18:05;;;;;;;37.43;8.90;;;3.10;1.00;;;;;;5024269;28;20820;-76
2023/12/18 01:20:30;;;;;;;23.60;10.30;;;3.10;1.00;;;;;;5027771;28;20228;-77
2023/12/18 01:22:56;;;;;;;25.90;10.33;;;3.10;1.00;;;;;;5026911;28;20290;-76
2023/12/18 01:25:21;;;;;;;22.60;9.90;;;3.50;1.00;;;;;;5021392;28;20260;-76
2023/12/18 01:27:47;;;;;;;27.23;10.40;;;3.20;1.00;;;;;;5028195;28;20182;-76
2023/12/18 01:30:12;;;;;;;33.73;11.17;;;3.30;1.00;;;;;;5027806;28;20235;-74
2023/12/18 01:32:38;;;;;;;25.23;10.60;;;3.30;1.00;;;;;;5028369;28;20189;-74
2023/12/18 01:35:04;;;;;;;30.43;10.60;;;3.30;1.00;;;;;;5027924;28;20189;-73
2023/12/18 01:37:30;;;;;;;25.03;10.30;;;3.30;1.00;;;;;;5026110;28;20185;-73
2023/12/18 01:39:55;;;;;;;28.50;10.80;;;3.30;1.00;;;;;;5028884;28;20429;-74
2023/12/18 01:42:21;;;;;;;30.67;9.60;;;3.50;1.00;;;;;;5027379;28;20201;-74
2023/12/18 01:44:48;;;;;;;25.20;10.50;;;3.20;1.00;;;;;;5028372;28;20491;-75
2023/12/18 01:47:15;;;;;;;36.13;9.97;;;3.40;1.00;;;;;;5028273;28;20637;-74
2023/12/18 01:49:41;;;;;;;26.27;10.60;;;3.30;1.00;;;;;;5026975;28;20428;-74
2023/12/18 01:52:06;;;;;;;23.70;11.00;;;3.30;1.00;;;;;;5025546;28;20440;-73
2023/12/18 01:54:32;;;;;;;28.17;10.30;;;2.90;1.00;;;;;;5028287;28;20463;-74
2023/12/18 01:56:59;;;;;;;25.70;11.00;;;3.30;1.00;;;;;;5024023;28;20236;-74
2023/12/18 01:59:24;;;;;;;22.30;9.67;;;3.30;1.00;;;;;;5027754;28;20190;-74
2023/12/18 02:01:51;;;;;;;25.40;11.47;;;3.30;1.00;;;;;;5027749;28;20451;-74
2023/12/18 02:04:18;;;;;;;22.20;9.20;;;3.40;1.00;;;;;;5020453;28;20640;-74
2023/12/18 02:06:44;;;;;;;27.90;11.20;;;3.30;1.00;;;;;;5026598;28;20424;-74
2023/12/18 02:09:11;;;;;;;32.77;12.00;;;3.30;1.00;;;;;;5028448;28;20451;-74
2023/12/18 02:11:37;;;;;;;34.33;12.10;;;3.30;1.00;;;;;;5027140;28;20471;-75
2023/12/18 02:14:04;;;;;;;29.43;10.30;;;3.60;1.00;;;;;;5026750;28;20543;-75
2023/12/18 02:16:29;;;;;;;29.10;10.67;;;3.40;1.00;;;;;;5024650;28;20528;-74
2023/12/18 02:18:55;;;;;;;25.80;10.07;;;3.20;1.00;;;;;;5021962;28;20428;-72
2023/12/18 02:21:21;;;;;;;18.23;8.77;;;3.20;1.00;;;;;;5027038;28;20221;-74
2023/12/18 02:23:50;;;;;;;23.37;9.90;;;3.20;1.00;;;;;;5027428;28;20186;-73
2023/12/18 02:26:16;;;;;;;24.23;10.10;;;3.20;1.00;;;;;;5026567;28;20755;-75
2023/12/18 02:28:44;;;;;;;18.93;9.10;;;3.40;1.00;;;;;;5027809;28;20433;-74
2023/12/18 02:31:13;;;;;;;22.17;9.63;;;3.20;1.00;;;;;;5027381;28;20900;-73
2023/12/18 02:33:38;;;;;;;20.47;8.57;;;3.20;1.00;;;;;;5026136;28;20555;-73
2023/12/18 02:36:04;;;;;;;21.60;10.00;;;3.20;1.00;;;;;;5027310;28;20420;-74
2023/12/18 02:38:30;;;;;;;20.17;9.67;;;3.30;1.00;;;;;;5027670;28;20561;-76
2023/12/18 02:40:55;;;;;;;20.63;9.47;;;3.30;1.00;;;;;;5027630;28;20220;-73
2023/12/18 02:43:21;;;;;;;21.67;9.10;;;3.30;1.00;;;;;;5026789;28;20607;-74
2023/12/18 02:45:46;;;;;;;25.17;10.77;;;3.30;1.00;;;;;;5027658;28;20213;-75
2023/12/18 02:48:12;;;;;;;21.43;9.23;;;3.20;1.00;;;;;;5027155;28;20189;-74
2023/12/18 02:50:38;;;;;;;23.43;10.17;;;3.20;1.00;;;;;;5026431;28;20688;-73
2023/12/18 02:53:03;;;;;;;19.70;8.77;;;3.40;1.00;;;;;;5026344;28;20206;-73
2023/12/18 02:55:29;;;;;;;22.07;10.33;;;3.20;1.00;;;;;;5022557;28;20570;-74
2023/12/18 02:57:54;;;;;;;25.63;9.00;;;3.20;1.00;;;;;;5031271;28;20252;-75
2023/12/18 03:00:20;;;;;;;21.63;9.30;;;3.20;1.00;;;;;;5031275;28;20289;-73
2023/12/18 03:02:46;;;;;;;23.60;9.70;;;3.20;1.00;;;;;;5027699;28;20199;-74
2023/12/18 03:05:12;;;;;;;23.77;9.10;;;3.60;1.00;;;;;;5030903;28;20208;-72
2023/12/18 03:07:37;;;;;;;21.43;9.37;;;3.10;1.00;;;;;;5031187;28;20918;-74
2023/12/18 03:10:03;;;;;;;22.23;9.60;;;3.00;1.00;;;;;;5029446;28;20185;-74
2023/12/18 03:12:28;;;;;;;23.43;9.13;;;3.00;1.00;;;;;;5027800;28;20244;-74
2023/12/18 03:14:54;;;;;;;23.00;9.33;;;3.20;1.00;;;;;;5034345;28;20185;-74
2023/12/18 03:17:20;;;;;;;20.90;9.33;;;3.00;1.00;;;;;;5033165;28;20218;-74
2023/12/18 03:19:45;;;;;;;27.37;10.80;;;2.90;1.00;;;;;;5029028;28;20638;-74
2023/12/18 03:22:13;;;;;;;20.80;9.80;;;3.00;1.00;;;;;;5030595;28;20607;-74
2023/12/18 03:24:39;;;;;;;22.60;10.53;;;3.00;1.00;;;;;;5029839;28;20276;-74
2023/12/18 03:27:05;;;;;;;23.17;10.07;;;2.90;1.00;;;;;;5031601;28;20424;-74
2023/12/18 03:29:30;;;;;;;26.33;10.77;;;3.00;1.00;;;;;;5028977;28;20443;-74
2023/12/18 03:31:56;;;;;;;20.40;9.40;;;3.00;1.00;;;;;;5030928;28;20202;-74
2023/12/18 03:34:21;;;;;;;20.20;9.90;;;3.20;1.00;;;;;;5029936;28;20708;-74
2023/12/18 03:36:47;;;;;;;26.13;9.50;;;3.00;1.00;;;;;;5030435;28;20232;-73
2023/12/18 03:39:12;;;;;;;21.50;9.47;;;3.10;1.00;;;;;;5030796;28;20557;-74
2023/12/18 03:41:38;;;;;;;25.17;10.33;;;3.00;1.00;;;;;;5030463;28;20208;-73
2023/12/18 03:44:03;;;;;;;27.23;10.33;;;3.00;1.00;;;;;;5030531;28;20280;-74
2023/12/18 03:46:29;;;;;;;24.03;9.83;;;3.00;1.00;;;;;;5030353;28;20644;-74
2023/12/18 03:48:54;;;;;;;22.77;9.00;;;3.00;1.00;;;;;;5044443;28;20188;-73
2023/12/18 03:51:20;;;;;;;20.57;9.30;;;3.20;1.00;;;;;;5029717;28;20209;-74
2023/12/18 03:53:45;;;;;;;18.37;9.60;;;3.00;1.00;;;;;;5031090;28;20727;-75
2023/12/18 03:56:11;;;;;;;20.33;8.63;;;3.00;1.00;;;;;;5030311;28;20173;-74
2023/12/18 03:58:36;;;;;;;25.90;9.83;;;3.00;1.00;;;;;;5021978;28;20178;-74
2023/12/18 04:01:02;;;;;;;19.27;8.83;;;3.00;1.00;;;;;;5030247;28;20605;-74
2023/12/18 04:03:28;;;;;;;22.37;10.20;;;3.00;1.00;;;;;;5030404;28;20197;-74
2023/12/18 04:05:53;;;;;;;22.13;9.67;;;3.00;1.00;;;;;;5029121;28;20429;-74
2023/12/18 04:08:19;;;;;;;24.93;10.60;;;3.00;1.00;;;;;;5026706;28;20700;-73
2023/12/18 04:10:44;;;;;;;20.50;9.07;;;3.00;1.00;;;;;;5030405;28;20202;-74
2023/12/18 04:13:10;;;;;;;29.17;9.43;;;3.00;1.00;;;;;;5026559;28;20202;-74
2023/12/18 04:15:35;;;;;;;24.30;10.07;;;3.00;1.00;;;;;;5029944;28;20543;-72
2023/12/18 04:18:01;;;;;;;21.23;9.37;;;2.80;1.00;;;;;;5030229;28;20265;-74
2023/12/18 04:20:26;;;;;;;20.80;9.20;;;2.90;1.00;;;;;;5028678;28;20585;-73
2023/12/18 04:22:52;;;;;;;21.40;9.13;;;2.90;1.00;;;;;;5029734;28;20189;-74
2023/12/18 04:25:17;;;;;;;17.60;8.83;;;2.90;1.00;;;;;;5030302;28;20181;-75
2023/12/18 04:27:43;;;;;;;18.27;8.27;;;2.70;1.00;;;;;;5022119;28;20316;-75
2023/12/18 04:30:09;;;;;;;24.90;10.23;;;2.80;1.00;;;;;;5029436;28;20196;-74
2023/12/18 04:32:35;;;;;;;18.50;8.57;;;2.80;1.00;;;;;;5029437;28;20190;-74
2023/12/18 04:35:00;;;;;;;18.80;8.83;;;2.80;1.00;;;;;;5028402;28;20451;-74
2023/12/18 04:37:25;;;;;;;22.10;9.70;;;2.90;1.00;;;;;;5025024;28;20251;-73
2023/12/18 04:39:51;;;;;;;19.00;9.17;;;2.90;1.00;;;;;;5029753;28;20173;-71
2023/12/18 04:42:16;;;;;;;23.30;9.40;;;2.80;1.00;;;;;;5027554;28;20198;-74
2023/12/18 04:44:42;;;;;;;22.57;10.90;;;2.90;1.00;;;;;;5029206;28;20238;-74
2023/12/18 04:47:07;;;;;;;25.27;9.40;;;2.80;1.00;;;;;;5028907;28;20247;-75
2023/12/18 04:49:33;;;;;;;22.17;9.60;;;2.80;1.00;;;;;;5028522;28;20193;-75
2023/12/18 04:51:59;;;;;;;20.83;10.17;;;2.70;1.00;;;;;;5028542;28;20206;-74
2023/12/18 04:54:24;;;;;;;24.40;9.70;;;2.80;1.00;;;;;;5029563;28;20202;-74
2023/12/18 04:56:49;;;;;;;22.47;9.13;;;2.80;1.00;;;;;;5027822;28;20235;-74
2023/12/18 04:59:15;;;;;;;23.17;9.93;;;2.90;1.00;;;;;;5029053;28;20181;-74
2023/12/18 05:01:41;;;;;;;24.77;10.47;;;2.80;1.00;;;;;;5027002;28;20205;-74
2023/12/18 05:04:06;;;;;;;23.00;10.63;;;2.90;1.00;;;;;;5028627;28;20193;-74
2023/12/18 05:06:32;;;;;;;24.33;9.00;;;2.90;1.00;;;;;;5027973;28;20668;-74
2023/12/18 05:08:57;;;;;;;22.43;9.03;;;2.90;1.00;;;;;;5044774;28;20772;-74
2023/12/18 05:11:24;;;;;;;22.93;10.23;;;2.90;1.00;;;;;;5028503;28;20304;-74
2023/12/18 05:13:50;;;;;;;19.80;9.27;;;2.90;1.00;;;;;;5027752;28;20194;-73
2023/12/18 05:16:16;;;;;;;20.90;9.60;;;3.00;1.00;;;;;;5028943;28;20437;-74
2023/12/18 05:18:42;;;;;;;25.40;10.97;;;2.90;1.00;;;;;;5028070;28;20186;-74
2023/12/18 05:21:09;;;;;;;23.60;10.07;;;2.90;1.00;;;;;;5027262;28;20456;-74
2023/12/18 05:23:35;;;;;;;18.97;8.80;;;2.90;1.00;;;;;;5028967;28;20794;-74
2023/12/18 05:26:01;;;;;;;22.90;9.63;;;3.00;1.00;;;;;;5028959;28;20458;-74
2023/12/18 05:28:27;;;;;;;28.40;11.20;;;3.00;1.00;;;;;;5026833;28;20194;-74
2023/12/18 05:30:53;;;;;;;22.23;9.47;;;2.80;1.00;;;;;;5028662;28;20262;-75
2023/12/18 05:33:18;;;;;;;25.53;9.47;;;2.80;1.00;;;;;;5044001;28;20461;-74
2023/12/18 05:35:44;;;;;;;22.23;10.13;;;2.80;1.00;;;;;;5026388;28;20731;-74
2023/12/18 05:38:10;;;;;;;22.50;9.80;;;2.80;1.00;;;;;;5024034;28;20264;-74
2023/12/18 05:40:36;;;;;;;16.27;8.33;;;2.90;1.00;;;;;;5026836;28;20205;-75
2023/12/18 05:43:02;;;;;;;20.80;9.97;;;2.90;1.00;;;;;;5028279;28;20283;-74
2023/12/18 05:45:27;;;;;;;30.53;11.73;;;2.90;1.00;;;;;;5027671;28;20523;-73
2023/12/18 05:47:53;;;;;;;29.40;12.17;;;2.90;1.00;;;;;;5028341;28;20556;-76
2023/12/18 05:50:18;;;;;;;22.00;10.17;;;2.90;1.00;;;;;;5025902;28;20240;-74
2023/12/18 05:52:44;;;;;;;21.77;9.97;;;3.30;1.00;;;;;;5042763;28;20182;-73
2023/12/18 05:55:10;;;;;;;24.77;11.07;;;2.90;1.00;;;;;;5027571;28;20189;-73
2023/12/18 05:57:36;;;;;;;28.07;11.33;;;2.80;1.00;;;;;;5027485;28;20182;-74
2023/12/18 06:00:06;;;;;;;27.33;10.40;;;2.90;1.00;;;;;;5025758;28;20513;-74
2023/12/18 06:02:31;;;;;;;31.70;12.27;;;2.80;1.00;;;;;;5027994;28;20420;-75
2023/12/18 06:04:57;;;;;;;22.00;10.07;;;2.80;1.00;;;;;;5026840;28;20436;-74
2023/12/18 06:07:22;;;;;;;23.07;9.33;;;2.80;1.00;;;;;;5027031;28;20186;-73
2023/12/18 06:09:48;;;;;;;19.50;9.40;;;3.00;1.00;;;;;;5024977;28;20177;-74
2023/12/18 06:12:13;;;;;;;22.17;9.63;;;2.80;1.00;;;;;;5027109;28;20209;-74
2023/12/18 06:14:39;;;;;;;23.77;10.37;;;2.80;1.00;;;;;;5027702;28;20205;-74
2023/12/18 06:17:05;;;;;;;27.03;10.10;;;2.80;1.00;;;;;;5028547;28;20178;-74
2023/12/18 06:19:30;;;;;;;20.97;8.90;;;2.80;1.00;;;;;;5027281;28;20219;-74
2023/12/18 06:21:56;;;;;;;21.17;9.20;;;2.70;1.00;;;;;;5024034;28;20190;-75
2023/12/18 06:24:21;;;;;;;22.10;9.93;;;2.70;1.00;;;;;;5022286;28;20272;-74
2023/12/18 06:26:47;;;;;;;24.03;9.87;;;2.60;1.00;;;;;;5028048;28;20195;-75
2023/12/18 06:29:13;;;;;;;21.40;9.47;;;2.60;1.00;;;;;;5027000;28;20189;-74
2023/12/18 06:31:38;;;;;;;24.43;10.00;;;2.40;1.00;;;;;;5024236;28;20298;-75
2023/12/18 06:34:03;;;;;;;22.30;9.20;;;2.40;1.00;;;;;;5026889;28;20198;-74
2023/12/18 06:36:29;;;;;;;21.30;8.80;;;2.40;1.00;;;;;;5027698;28;20277;-74
2023/12/18 06:38:55;;;;;;;20.20;9.00;;;0.60;1.00;;;;;;5020914;28;20729;-76
2023/12/18 06:41:21;;;;;;;20.93;9.70;;;2.50;1.00;;;;;;5026682;28;20273;-74
2023/12/18 06:43:46;;;;;;;22.00;10.33;;;2.50;1.00;;;;;;5027309;28;20263;-75
2023/12/18 06:46:12;;;;;;;19.30;9.80;;;2.70;1.00;;;;;;5026976;28;20181;-74
2023/12/18 06:48:40;;;;;;;18.30;9.53;;;2.60;1.00;;;;;;5025760;28;20197;-75
2023/12/18 06:51:08;;;;;;;19.03;8.90;;;2.40;1.00;;;;;;5026914;28;20198;-76
2023/12/18 06:53:34;;;;;;;22.43;9.20;;;2.30;1.00;;;;;;5022203;28;20456;-74
2023/12/18 06:55:59;;;;;;;24.00;10.03;;;2.20;1.00;;;;;;5027268;28;20440;-74
2023/12/18 06:58:25;;;;;;;18.60;9.00;;;2.20;1.00;;;;;;5016445;28;20269;-75
2023/12/18 07:00:50;;;;;;;22.00;9.97;;;2.20;1.00;;;;;;5024700;28;20209;-75
2023/12/18 07:03:16;;;;;;;25.30;10.20;;;2.20;1.00;;;;;;5022283;28;20264;-74
2023/12/18 07:05:42;;;;;;;20.40;9.57;;;2.30;1.00;;;;;;5026763;28;20305;-74
2023/12/18 07:08:07;;;;;;;24.40;10.37;;;2.20;1.00;;;;;;5024273;28;20721;-73
2023/12/18 07:10:33;;;;;;;30.87;12.97;;;2.50;1.00;;;;;;5022976;28;20417;-73
2023/12/18 07:12:58;;;;;;;26.90;12.17;;;2.60;1.00;;;;;;5026421;28;20198;-73
2023/12/18 07:15:25;;;;;;;23.53;9.97;;;3.00;1.00;;;;;;5026117;28;20191;-74
2023/12/18 07:17:51;;;;;;;21.20;9.83;;;3.00;1.00;;;;;;5023929;28;20250;-74
2023/12/18 07:20:16;;;;;;;22.13;10.30;;;2.80;1.00;;;;;;5026452;28;20459;-74
2023/12/18 07:22:42;;;;;;;19.20;8.73;;;2.70;1.00;;;;;;5026336;28;20182;-74
2023/12/18 07:25:09;;;;;;;16.60;8.87;;;2.40;1.00;;;;;;5027055;28;20652;-72
2023/12/18 07:27:35;;;;;;;21.57;9.70;;;2.40;1.00;;;;;;5026401;28;20182;-73
2023/12/18 07:30:03;;;;;;;20.37;8.47;;;2.30;1.00;;;;;;5024688;28;20427;-75
2023/12/18 07:32:29;;;;;;;21.07;9.87;;;2.30;1.00;;;;;;5026612;28;20428;-74
2023/12/18 07:34:55;;;;;;;25.53;10.60;;;2.30;1.00;;;;;;5025853;28;20577;-75
2023/12/18 07:37:21;;;;;;;19.97;9.60;;;2.30;1.00;;;;;;5027061;28;20836;-74
2023/12/18 07:39:47;;;;;;;20.67;10.23;;;2.20;1.00;;;;;;5025757;28;20737;-74
2023/12/18 07:42:12;;;;;;;20.87;9.30;;;2.20;1.00;;;;;;5028298;28;20447;-74
2023/12/18 07:44:38;;;;;;;32.73;10.57;;;2.20;1.00;;;;;;5030016;28;20240;-74
2023/12/18 07:47:06;;;;;;;31.40;11.13;;;2.20;1.00;;;;;;5030752;28;20193;-74
2023/12/18 07:49:32;;;;;;;19.87;9.73;;;2.20;1.00;;;;;;5021717;28;20216;-74
2023/12/18 07:51:57;;;;;;;22.50;9.20;;;2.20;1.00;;;;;;5029768;28;20900;-74
2023/12/18 07:54:23;;;;;;;25.50;10.23;;;2.20;1.00;;;;;;5028952;28;20216;-73
2023/12/18 07:56:49;;;;;;;21.40;9.43;;;2.20;1.00;;;;;;5012005;28;20293;-77
2023/12/18 07:59:16;;;;;;;58.00;11.47;;;2.20;1.00;;;;;;5023439;28;20189;-74
2023/12/18 08:01:42;;;;;;;23.43;10.63;;;2.30;1.00;;;;;;5027039;28;20258;-71
2023/12/18 08:04:08;;;;;;;19.80;9.50;;;2.30;1.00;;;;;;5054892;22;20499;-72
2023/12/18 08:06:34;;;;;;;23.27;10.20;;;2.30;1.00;;;;;;5043492;28;20204;-73
2023/12/18 08:08:59;;;;;;;23.57;10.60;;;2.30;1.00;;;;;;5049563;28;20942;-73
2023/12/18 08:11:25;;;;;;;19.47;9.63;;;2.30;1.00;;;;;;5031128;28;20185;-73
2023/12/18 08:13:50;;;;;;;23.67;9.50;;;2.40;1.00;;;;;;5052290;28;20213;-72
2023/12/18 08:16:17;;;;;;;14.97;7.50;;;2.40;1.00;;;;;;5057988;28;20173;-73
2023/12/18 08:18:42;;;;;;;20.00;8.87;;;2.40;1.00;;;;;;5051641;28;20173;-72
2023/12/18 08:21:12;;;;;;;21.70;9.53;;;2.40;1.00;;;;;;5048651;28;20435;-73
2023/12/18 08:23:39;;;;;;;22.73;9.90;;;2.30;1.00;;;;;;5049805;28;20660;-73
2023/12/18 08:26:04;;;;;;;19.03;8.33;;;2.50;1.00;;;;;;5050806;28;20806;-73
2023/12/18 08:28:29;;;;;;;18.43;9.70;;;2.70;1.00;;;;;;5046280;28;20459;-72
2023/12/18 08:30:55;;;;;;;20.03;9.53;;;2.70;1.00;;;;;;5066689;28;20196;-73
2023/12/18 08:33:20;;;;;;;17.20;8.87;;;2.80;1.00;;;;;;5052587;28;20691;-73
2023/12/18 08:35:46;;;;;;;18.87;8.43;;;2.90;1.00;;;;;;5049317;28;20536;-73
2023/12/18 08:38:11;;;;;;;21.43;9.33;;;2.90;1.00;;;;;;5050204;28;20481;-73
2023/12/18 08:40:37;;;;;;;18.10;9.70;;;3.00;1.00;;;;;;5052296;28;20216;-73
2023/12/18 08:43:02;;;;;;;20.10;8.67;;;3.10;1.00;;;;;;5052162;28;20200;-74
2023/12/18 08:45:28;;;;;;;21.67;8.63;;;3.30;1.00;;;;;;5055077;28;20276;-73
2023/12/18 08:47:54;;;;;;;16.50;8.57;;;3.30;1.00;;;;;;5031938;28;20181;-73
2023/12/18 08:50:20;;;;;;;16.80;8.20;;;3.40;1.00;;;;;;5049441;28;20311;-73
2023/12/18 08:52:45;;;;;;;14.53;7.53;;;3.20;1.00;;;;;;5050395;28;20885;-73
2023/12/18 08:55:11;;;;;;;20.33;8.33;;;3.20;1.00;;;;;;5050624;28;20196;-73
2023/12/18 08:57:37;;;;;;;15.90;7.60;;;3.10;1.00;;;;;;5030463;28;20184;-73
2023/12/18 09:00:04;;;;;;;13.33;7.23;;;3.10;1.00;;;;;;5064550;28;20227;-72
2023/12/18 09:02:29;;;;;;;21.73;8.13;;;3.20;1.00;;;;;;5049106;28;20184;-73
2023/12/18 09:04:55;;;;;;;16.93;7.90;;;3.20;1.00;;;;;;5065845;28;20418;-73
2023/12/18 09:07:21;;;;;;;16.43;8.47;;;3.30;1.00;;;;;;5048389;28;20205;-73
2023/12/18 09:09:46;;;;;;;18.90;8.60;;;3.30;1.00;;;;;;5053286;28;20220;-73
2023/12/18 09:12:12;;;;;;;16.30;8.57;;;3.50;1.00;;;;;;5051651;28;20378;-73
2023/12/18 09:14:38;;;;;;;14.77;7.90;;;3.60;1.00;;;;;;5052201;28;20247;-73
2023/12/18 09:17:03;;;;;;;11.73;7.40;;;3.80;1.00;;;;;;5066502;28;20422;-73
2023/12/18 09:19:29;;;;;;;14.00;7.40;;;4.00;1.00;;;;;;5049698;28;20196;-73
2023/12/18 09:21:55;;;;;;;13.10;7.87;;;4.00;1.00;;;;;;5030089;28;20250;-73
2023/12/18 09:24:20;;;;;;;13.13;7.67;;;4.10;1.00;;;;;;5049617;28;20435;-73
2023/12/18 09:26:46;;;;;;;14.10;8.10;;;4.80;1.00;;;;;;5048504;28;20217;-73
2023/12/18 09:29:11;;;;;;;19.13;8.90;;;6.20;1.00;;;;;;5028468;28;20178;-73
2023/12/18 09:31:37;;;;;;;14.20;8.07;;;7.70;1.00;;;;;;5047509;28;20192;-73
2023/12/18 09:34:02;;;;;;;14.10;7.30;;;9.20;1.00;;;;;;5045917;28;20217;-74
2023/12/18 09:36:28;;;;;;;14.83;8.80;;;10.10;1.00;;;;;;5049468;28;20512;-73
2023/12/18 09:38:53;;;;;;;15.90;8.40;;;11.20;1.00;;;;;;5054082;28;20220;-74
2023/12/18 09:41:26;;;;;;;14.80;8.40;;;12.10;1.00;;;;;;5049556;28;20185;-74
2023/12/18 09:43:52;;;;;;;13.07;8.40;;;12.60;1.00;;;;;;5044715;28;20965;-74
2023/12/18 09:46:23;;;;;;;13.90;8.70;;;13.40;1.00;;;;;;5034021;28;20430;-74
2023/12/18 09:48:53;;;;;;;13.70;9.03;;;15.60;1.00;;;;;;5046970;28;20415;-74
2023/12/18 09:51:24;;;;;;;13.70;8.80;;;15.60;1.00;;;;;;5045530;28;20448;-74
2023/12/18 09:53:51;;;;;;;16.63;9.93;;;15.80;1.00;;;;;;5029311;28;21043;-75
2023/12/18 09:56:22;;;;;;;15.77;10.10;;;15.80;1.00;;;;;;5030817;28;20956;-74
2023/12/18 09:58:47;;;;;;;19.93;10.70;;;15.50;1.00;;;;;;5051363;28;20424;-75
2023/12/18 10:01:16;;;;;;;15.50;9.70;;;15.40;1.00;;;;;;5047917;28;20793;-73
2023/12/18 10:03:42;;;;;;;15.93;10.60;;;15.40;1.00;;;;;;5033834;28;20871;-73
2023/12/18 10:06:08;;;;;;;16.80;11.10;;;15.50;1.00;;;;;;5049272;28;20462;-74
2023/12/18 10:08:35;;;;;;;17.00;10.33;;;15.70;1.00;;;;;;5035361;28;20343;-75
2023/12/18 10:11:01;;;;;;;16.90;10.57;;;15.90;1.00;;;;;;5044296;28;20423;-75
2023/12/18 10:13:26;;;;;;;19.23;11.70;;;15.40;1.00;;;;;;5053777;28;20477;-76
2023/12/18 10:15:53;;;;;;;16.60;10.90;;;16.10;1.00;;;;;;5058379;28;20839;-75
2023/12/18 10:18:22;;;;;;;18.37;10.93;;;16.50;1.00;;;;;;5048616;28;20213;-75
2023/12/18 10:20:49;;;;;;;18.57;10.57;;;17.20;1.00;;;;;;5046774;28;20434;-75
2023/12/18 10:23:15;;;;;;;19.33;10.83;;;17.30;1.00;;;;;;5038154;28;21049;-74
2023/12/18 10:25:41;;;;;;;17.73;10.90;;;17.70;1.00;;;;;;5047760;28;20531;-75
2023/12/18 10:28:07;;;;;;;14.90;10.10;;;17.20;1.00;;;;;;5031825;28;20188;-75
2023/12/18 10:30:34;;;;;;;16.10;10.00;;;17.30;1.00;;;;;;5034921;28;20181;-76
2023/12/18 10:33:05;;;;;;;16.73;9.77;;;16.80;1.00;;;;;;5032439;28;20200;-75
2023/12/18 10:35:32;;;;;;;16.20;10.93;;;17.00;1.00;;;;;;5048573;28;20934;-75
2023/12/18 10:38:00;;;;;;;18.47;10.90;;;18.10;1.00;;;;;;5029165;28;20416;-75
2023/12/18 10:40:27;;;;;;;15.53;10.00;;;18.30;1.00;;;;;;5060033;28;20832;-76
2023/12/18 10:43:16;;;;;;;15.87;10.47;;;18.90;1.00;;;;;;5053745;28;20443;-75
2023/12/18 10:45:43;;;;;;;18.10;11.00;;;20.00;1.00;;;;;;5042976;28;20510;-74
2023/12/18 10:48:11;;;;;;;16.33;10.27;;;21.40;1.00;;;;;;5052070;28;20415;-75
2023/12/18 10:50:38;;;;;;;18.73;11.13;;;21.90;1.00;;;;;;5054429;28;20425;-74
2023/12/18 10:53:04;;;;;;;17.17;10.20;;;20.50;1.00;;;;;;5057167;28;20510;-73
2023/12/18 10:55:31;;;;;;;15.90;10.47;;;20.90;1.00;;;;;;5029333;28;20423;-75
2023/12/18 10:58:00;;;;;;;15.20;10.43;;;20.90;1.00;;;;;;5029467;28;20419;-76
2023/12/18 11:00:27;;;;;;;16.63;9.97;;;20.60;1.00;;;;;;5048331;28;20419;-75
2023/12/18 11:02:55;;;;;;;14.67;9.47;;;20.10;1.00;;;;;;5028653;28;20513;-75
2023/12/18 11:05:23;;;;;;;14.40;9.27;;;20.20;1.00;;;;;;5047756;28;20407;-75
2023/12/18 11:07:50;;;;;;;16.50;10.00;;;21.10;1.00;;;;;;5047563;28;20843;-75
2023/12/18 11:10:15;;;;;;;14.20;9.70;;;22.70;1.00;;;;;;5048462;28;20765;-75
2023/12/18 11:12:42;;;;;;;1999.90;824.00;;;23.00;1.00;;;;;;5053217;28;20701;-74
2023/12/18 11:15:31;;;;;;;1588.03;554.87;;;23.10;1.00;;;;;;5050136;28;20196;-75
2023/12/18 11:18:20;;;;;;;1018.90;355.53;;;22.90;1.00;;;;;;5050076;28;20506;-77
2023/12/18 11:20:46;;;;;;;902.53;317.90;;;23.20;1.00;;;;;;5046532;28;20411;-76
2023/12/18 11:23:11;;;;;;;278.23;80.43;;;22.60;1.00;;;;;;5064842;28;20504;-74
2023/12/18 11:25:41;;;;;;;358.57;108.43;;;23.30;1.00;;;;;;5029718;28;20563;-74
2023/12/18 11:28:06;;;;;;;368.70;99.17;;;23.30;1.00;;;;;;5050092;28;20185;-75
2023/12/18 11:30:34;;;;;;;209.27;58.37;;;23.60;1.00;;;;;;5057701;28;20493;-76
2023/12/18 11:33:09;;;;;;;47.50;19.30;;;23.70;1.00;;;;;;5050254;28;20591;-74
2023/12/18 11:35:36;;;;;;;128.40;38.20;;;23.80;1.00;;;;;;5032552;28;20423;-75
2023/12/18 11:38:12;;;;;;;77.93;26.67;;;24.20;1.00;;;;;;5049711;28;20433;-74
2023/12/18 11:40:39;;;;;;;63.93;20.43;;;24.90;1.00;;;;;;5057631;28;20423;-75
2023/12/18 11:43:13;;;;;;;97.27;31.63;;;24.40;1.00;;;;;;5040938;28;20450;-75
2023/12/18 11:45:41;;;;;;;60.67;23.60;;;24.60;1.00;;;;;;5043872;28;20421;-75
2023/12/18 11:48:07;;;;;;;54.50;19.80;;;24.50;1.00;;;;;;5036056;28;21038;-74
2023/12/18 11:50:35;;;;;;;74.10;24.33;;;24.90;1.00;;;;;;5049801;28;20845;-74
2023/12/18 11:53:02;;;;;;;27.03;15.20;;;24.20;1.00;;;;;;5051104;28;20529;-75
2023/12/18 11:55:40;;;;;;;45.40;20.33;;;24.40;1.00;;;;;;5054885;28;20430;-75
2023/12/18 11:58:07;;;;;;;51.70;22.80;;;24.30;1.00;;;;;;5050126;28;20797;-74
2023/12/18 12:00:33;;;;;;;41.73;17.80;;;23.80;1.00;;;;;;5045507;28;20921;-74
2023/12/18 12:03:00;;;;;;;22.23;14.87;;;23.20;1.00;;;;;;5050004;28;20454;-73
2023/12/18 12:05:26;;;;;;;28.23;14.40;;;23.20;1.00;;;;;;5049440;28;20738;-74
2023/12/18 12:07:52;;;;;;;28.00;14.00;;;23.30;1.00;;;;;;5055694;28;20504;-73
2023/12/18 12:10:18;;;;;;;25.87;14.20;;;23.60;1.00;;;;;;5059331;28;20183;-74
2023/12/18 12:12:44;;;;;;;32.97;15.73;;;23.70;1.00;;;;;;5048716;28;20447;-74
2023/12/18 12:15:10;;;;;;;15.40;11.07;;;23.70;1.00;;;;;;5049171;28;20681;-75
2023/12/18 12:17:37;;;;;;;15.33;10.47;;;22.50;1.00;;;;;;5049828;28;20423;-74
2023/12/18 12:20:07;;;;;;;18.20;11.00;;;19.30;1.00;;;;;;5049918;28;20434;-73
2023/12/18 12:22:33;;;;;;;16.60;10.97;;;15.50;1.00;;;;;;5046516;28;20949;-73
2023/12/18 12:24:59;;;;;;;16.10;10.60;;;15.50;1.00;;;;;;5032108;28;20933;-73
2023/12/18 12:27:25;;;;;;;18.50;10.60;;;17.00;1.00;;;;;;5030088;28;20427;-73
2023/12/18 12:29:51;;;;;;;18.10;11.50;;;19.50;1.00;;;;;;5031447;28;20683;-74
2023/12/18 12:32:18;;;;;;;17.80;11.00;;;20.90;1.00;;;;;;5048936;28;20431;-74
2023/12/18 12:34:46;;;;;;;23.70;11.17;;;20.50;1.00;;;;;;5050807;28;20212;-75
2023/12/18 12:37:12;;;;;;;18.50;11.80;;;18.50;1.00;;;;;;5032764;28;20428;-73
2023/12/18 12:39:38;;;;;;;15.83;10.67;;;16.10;1.00;;;;;;5050742;28;20534;-74
2023/12/18 12:42:03;;;;;;;19.30;12.13;;;14.20;1.00;;;;;;5064366;28;20502;-73
2023/12/18 12:44:29;;;;;;;18.87;11.20;;;12.80;1.00;;;;;;5067353;28;20574;-73